Time;durP1;ratioP1;P1;durP2;ratioP2;P2;SDS_P1;SDS_P2;PMS_P1;PMS_P2;Temp;Humidity;BMP_temperature;BMP_pressure;BME280_temperature;BME280_humidity;BME280_pressure;Samples;Min_cycle;Max_cycle;Signal;HPM_P1;HPM_P2
2023/07/13 00:02:07;;;;;;;0.00;0.00;;;18.30;99.90;;;;;;5149049;27;20043;-68
2023/07/13 00:04:33;;;;;;;0.00;0.00;;;18.30;99.90;;;;;;5151508;27;20390;-68
2023/07/13 00:06:58;;;;;;;0.00;0.00;;;18.30;99.90;;;;;;5151480;27;20504;-68
2023/07/13 00:09:24;;;;;;;0.00;0.00;;;18.30;99.90;;;;;;5140914;27;20080;-68
2023/07/13 00:11:52;;;;;;;0.20;0.20;;;18.20;99.90;;;;;;5145878;27;20099;-68
2023/07/13 00:14:19;;;;;;;0.00;0.00;;;18.20;99.90;;;;;;5146688;27;20042;-68
2023/07/13 00:16:45;;;;;;;0.10;0.10;;;18.10;99.90;;;;;;5123553;27;20406;-68
2023/07/13 00:19:12;;;;;;;0.00;0.00;;;18.10;99.90;;;;;;5148774;27;20133;-68
2023/07/13 00:21:39;;;;;;;0.00;0.00;;;18.10;99.90;;;;;;5134391;27;20053;-68
2023/07/13 00:24:06;;;;;;;0.00;0.00;;;18.10;99.90;;;;;;5151745;27;20038;-68
2023/07/13 00:26:32;;;;;;;0.98;0.38;;;18.10;99.90;;;;;;5145799;27;20099;-68
2023/07/13 00:28:58;;;;;;;0.13;0.13;;;18.10;99.90;;;;;;5151731;27;20046;-68
2023/07/13 00:31:25;;;;;;;0.00;0.00;;;18.00;99.90;;;;;;5147597;27;20548;-68
2023/07/13 00:33:51;;;;;;;0.00;0.00;;;18.00;99.90;;;;;;5125114;27;20529;-68
2023/07/13 00:36:17;;;;;;;0.00;0.00;;;18.00;99.90;;;;;;5145591;27;20049;-68
2023/07/13 00:38:42;;;;;;;0.00;0.00;;;18.00;99.90;;;;;;5151440;27;20031;-68
2023/07/13 00:41:09;;;;;;;0.00;0.00;;;18.00;99.90;;;;;;5146185;27;20130;-68
2023/07/13 00:43:35;;;;;;;0.00;0.00;;;17.90;99.90;;;;;;5146730;27;20035;-68
2023/07/13 00:46:24;;;;;;;0.10;0.10;;;17.90;99.90;;;;;;5151942;27;20091;-68
2023/07/13 00:48:51;;;;;;;0.00;0.00;;;17.90;99.90;;;;;;5147756;27;20121;-68
2023/07/13 00:51:25;;;;;;;0.13;0.13;;;17.90;99.90;;;;;;5144826;27;20100;-68
2023/07/13 00:53:53;;;;;;;0.00;0.00;;;17.80;99.90;;;;;;5151833;27;20035;-68
2023/07/13 00:56:19;;;;;;;0.00;0.00;;;17.80;99.90;;;;;;5150725;27;20062;-68
2023/07/13 00:58:45;;;;;;;0.00;0.00;;;17.80;99.90;;;;;;5148462;27;20038;-68
2023/07/13 01:01:12;;;;;;;0.00;0.00;;;17.80;99.90;;;;;;5143077;27;20046;-68
2023/07/13 01:03:40;;;;;;;0.00;0.00;;;17.80;99.90;;;;;;5153109;27;20034;-68
2023/07/13 01:06:06;;;;;;;0.00;0.00;;;17.80;99.90;;;;;;5147781;27;20034;-68
2023/07/13 01:08:32;;;;;;;0.00;0.00;;;17.80;99.90;;;;;;5144520;27;20092;-68
2023/07/13 01:10:58;;;;;;;0.00;0.00;;;17.80;99.90;;;;;;5150326;27;20042;-68
2023/07/13 01:13:25;;;;;;;0.00;0.00;;;17.80;99.90;;;;;;5151732;27;20446;-68
2023/07/13 01:15:52;;;;;;;0.00;0.00;;;17.80;99.90;;;;;;5139260;27;20038;-68
2023/07/13 01:18:25;;;;;;;0.00;0.00;;;17.70;99.90;;;;;;5125364;27;20041;-68
2023/07/13 01:21:00;;;;;;;0.00;0.00;;;17.70;99.90;;;;;;5138780;27;20091;-68
2023/07/13 01:23:27;;;;;;;0.00;0.00;;;17.70;99.90;;;;;;5151785;27;20079;-68
2023/07/13 01:25:55;;;;;;;0.93;0.73;;;17.70;99.90;;;;;;5120229;27;20046;-68
2023/07/13 01:28:22;;;;;;;0.00;0.00;;;17.60;99.90;;;;;;5128226;27;20121;-69
2023/07/13 01:30:47;;;;;;;0.00;0.00;;;17.50;99.90;;;;;;5147241;27;20049;-68
2023/07/13 01:33:16;;;;;;;0.00;0.00;;;17.60;99.90;;;;;;5126618;27;20058;-68
2023/07/13 01:35:43;;;;;;;0.00;0.00;;;17.60;99.90;;;;;;5150059;27;20553;-68
2023/07/13 01:38:09;;;;;;;0.00;0.00;;;17.50;99.90;;;;;;5142396;27;20035;-68
2023/07/13 01:40:37;;;;;;;0.00;0.00;;;17.60;99.90;;;;;;5148286;27;20046;-68
2023/07/13 01:43:03;;;;;;;0.13;0.13;;;17.50;99.90;;;;;;5127602;27;20474;-68
2023/07/13 01:45:28;;;;;;;0.00;0.00;;;17.50;99.90;;;;;;5142695;27;20063;-68
2023/07/13 01:47:54;;;;;;;0.00;0.00;;;17.50;99.90;;;;;;5148624;27;20074;-68
2023/07/13 01:50:20;;;;;;;0.00;0.00;;;17.50;99.90;;;;;;5144333;27;20065;-68
2023/07/13 01:52:46;;;;;;;0.00;0.00;;;17.50;99.90;;;;;;5149946;27;20038;-68
2023/07/13 01:55:12;;;;;;;0.00;0.00;;;17.50;99.90;;;;;;5142831;27;20030;-67
2023/07/13 01:57:41;;;;;;;0.00;0.00;;;17.50;99.90;;;;;;5143212;27;20043;-68
2023/07/13 02:00:08;;;;;;;0.00;0.00;;;17.50;99.90;;;;;;5147627;27;20400;-68
2023/07/13 02:02:34;;;;;;;0.00;0.00;;;17.50;99.90;;;;;;5128001;27;20478;-68
2023/07/13 02:05:00;;;;;;;0.00;0.00;;;17.50;99.90;;;;;;5150441;27;20034;-68
2023/07/13 02:07:25;;;;;;;0.00;0.00;;;17.50;99.90;;;;;;5145039;27;20054;-68
2023/07/13 02:09:51;;;;;;;0.00;0.00;;;17.50;99.90;;;;;;5143497;27;20507;-68
2023/07/13 02:12:16;;;;;;;0.00;0.00;;;17.50;99.90;;;;;;5149319;27;20046;-68
2023/07/13 02:14:42;;;;;;;0.00;0.00;;;17.50;99.90;;;;;;5145197;27;20118;-68
2023/07/13 02:17:10;;;;;;;0.28;0.28;;;17.50;99.90;;;;;;5146268;27;20039;-68
2023/07/13 02:19:36;;;;;;;0.20;0.20;;;17.40;99.90;;;;;;5123461;27;20092;-67
2023/07/13 02:22:02;;;;;;;0.10;0.10;;;17.40;99.90;;;;;;5130258;27;20031;-68
2023/07/13 02:24:28;;;;;;;0.35;0.35;;;17.40;99.90;;;;;;5150687;27;20042;-68
2023/07/13 02:26:53;;;;;;;0.00;0.00;;;17.40;99.90;;;;;;5141922;27;20037;-68
2023/07/13 02:29:19;;;;;;;0.25;0.25;;;17.30;99.90;;;;;;5150647;27;20042;-67
2023/07/13 02:31:45;;;;;;;2.42;1.10;;;17.40;99.90;;;;;;5149969;27;20046;-67
2023/07/13 02:34:11;;;;;;;0.65;0.32;;;17.40;99.90;;;;;;5146884;27;20053;-66
2023/07/13 02:36:36;;;;;;;0.80;0.55;;;17.40;99.90;;;;;;5128680;27;20038;-66
2023/07/13 02:39:05;;;;;;;0.00;0.00;;;17.30;99.90;;;;;;5148685;27;20039;-66
2023/07/13 02:41:30;;;;;;;0.00;0.00;;;17.30;99.90;;;;;;5146508;27;20443;-66
2023/07/13 02:44:03;;;;;;;0.10;0.10;;;17.20;99.90;;;;;;5136644;27;20069;-66
2023/07/13 02:46:33;;;;;;;0.00;0.00;;;17.10;99.90;;;;;;5148555;27;20298;-66
2023/07/13 02:48:59;;;;;;;0.00;0.00;;;17.00;99.90;;;;;;5151382;27;20651;-66
2023/07/13 02:51:25;;;;;;;0.22;0.22;;;17.00;99.90;;;;;;5151754;27;20039;-66
2023/07/13 02:53:51;;;;;;;0.00;0.00;;;17.00;99.90;;;;;;5154660;27;20046;-66
2023/07/13 02:56:18;;;;;;;0.00;0.00;;;17.00;99.90;;;;;;5143666;27;20117;-66
2023/07/13 02:58:44;;;;;;;0.20;0.20;;;17.00;99.90;;;;;;5148071;27;20066;-66
2023/07/13 03:01:11;;;;;;;0.05;0.05;;;17.00;99.90;;;;;;5148549;27;20588;-66
2023/07/13 03:03:38;;;;;;;1.17;0.52;;;17.00;99.90;;;;;;5142917;27;20066;-66
2023/07/13 03:06:05;;;;;;;0.00;0.00;;;16.90;99.90;;;;;;5150650;27;20536;-66
2023/07/13 03:08:31;;;;;;;0.03;0.03;;;16.90;99.90;;;;;;5149020;27;20027;-65
2023/07/13 03:11:06;;;;;;;0.13;0.13;;;16.90;99.90;;;;;;5147103;27;20043;-66
2023/07/13 03:13:32;;;;;;;0.00;0.00;;;16.80;99.90;;;;;;5150798;27;20081;-66
2023/07/13 03:15:57;;;;;;;0.03;0.03;;;16.80;99.90;;;;;;5151885;27;20070;-66
2023/07/13 03:18:23;;;;;;;0.10;0.10;;;16.90;99.90;;;;;;5144956;27;20050;-66
2023/07/13 03:20:52;;;;;;;0.10;0.10;;;16.80;99.90;;;;;;5145927;27;20078;-66
2023/07/13 03:23:18;;;;;;;0.15;0.15;;;16.80;99.90;;;;;;5146892;27;20053;-66
2023/07/13 03:25:44;;;;;;;0.00;0.00;;;16.80;99.90;;;;;;5146397;27;20039;-66
2023/07/13 03:28:14;;;;;;;0.98;0.52;;;16.90;99.90;;;;;;5146442;27;20043;-66
2023/07/13 03:30:40;;;;;;;0.10;0.10;;;16.80;99.90;;;;;;5152671;27;20039;-66
2023/07/13 03:33:06;;;;;;;0.00;0.00;;;16.80;99.90;;;;;;5147053;27;20390;-66
2023/07/13 03:35:33;;;;;;;0.63;0.40;;;16.80;99.90;;;;;;5147554;27;20047;-66
2023/07/13 03:37:59;;;;;;;0.00;0.00;;;16.80;99.90;;;;;;5151055;27;20038;-66
2023/07/13 03:40:26;;;;;;;0.10;0.10;;;16.90;99.90;;;;;;5140862;27;20043;-66
2023/07/13 03:42:52;;;;;;;0.10;0.10;;;16.80;99.90;;;;;;5142394;27;20046;-66
2023/07/13 03:45:19;;;;;;;0.65;0.65;;;16.70;99.90;;;;;;5150664;27;20074;-66
2023/07/13 03:47:44;;;;;;;0.20;0.20;;;16.70;99.90;;;;;;5152060;27;20113;-66
2023/07/13 03:50:10;;;;;;;0.00;0.00;;;16.70;99.90;;;;;;5150358;27;20614;-66
2023/07/13 03:52:36;;;;;;;0.00;0.00;;;16.70;99.90;;;;;;5144662;27;20546;-66
2023/07/13 03:55:01;;;;;;;0.00;0.00;;;16.70;99.90;;;;;;5133509;27;20070;-66
2023/07/13 03:57:27;;;;;;;0.00;0.00;;;16.70;99.90;;;;;;5149305;27;20493;-66
2023/07/13 03:59:53;;;;;;;23.48;0.45;;;16.70;99.90;;;;;;5143628;27;20113;-66
2023/07/13 04:02:19;;;;;;;4.10;0.47;;;16.70;99.90;;;;;;5150171;27;20050;-66
2023/07/13 04:04:44;;;;;;;0.00;0.00;;;16.70;99.90;;;;;;5152694;27;20046;-66
2023/07/13 04:07:10;;;;;;;0.03;0.03;;;16.70;99.90;;;;;;5146842;27;20285;-66
2023/07/13 04:09:36;;;;;;;0.00;0.00;;;16.70;99.90;;;;;;5145669;27;20042;-66
2023/07/13 04:12:02;;;;;;;0.00;0.00;;;16.70;99.90;;;;;;5147243;27;20087;-66
2023/07/13 04:14:27;;;;;;;0.00;0.00;;;16.70;99.90;;;;;;5152426;27;20123;-66
2023/07/13 04:16:54;;;;;;;0.10;0.10;;;16.70;99.90;;;;;;5148503;27;20039;-66
2023/07/13 04:19:20;;;;;;;7.97;0.15;;;16.70;99.90;;;;;;5151745;27;20045;-66
2023/07/13 04:21:46;;;;;;;0.40;0.32;;;16.70;99.90;;;;;;5152686;27;20175;-66
2023/07/13 04:24:12;;;;;;;0.00;0.00;;;16.60;99.90;;;;;;5149602;27;20117;-66
2023/07/13 04:26:39;;;;;;;0.10;0.10;;;16.60;99.90;;;;;;5148550;27;20191;-66
2023/07/13 04:29:05;;;;;;;0.00;0.00;;;16.60;99.90;;;;;;5151818;27;20034;-66
2023/07/13 04:31:31;;;;;;;0.00;0.00;;;16.70;99.90;;;;;;5149418;27;20478;-66
2023/07/13 04:33:57;;;;;;;0.00;0.00;;;16.70;99.90;;;;;;5139042;27;20055;-66
2023/07/13 04:36:23;;;;;;;0.10;0.10;;;16.70;99.90;;;;;;5149879;27;20086;-66
2023/07/13 04:38:48;;;;;;;0.47;0.47;;;16.70;99.90;;;;;;5127339;27;20031;-67
2023/07/13 04:41:15;;;;;;;0.28;0.28;;;16.70;99.90;;;;;;5141903;27;20390;-66
2023/07/13 04:43:41;;;;;;;1.13;0.95;;;16.70;99.90;;;;;;5142604;27;20042;-66
2023/07/13 04:46:11;;;;;;;0.70;0.32;;;16.80;99.90;;;;;;5150232;27;20043;-66
2023/07/13 04:48:37;;;;;;;0.08;0.08;;;16.70;99.90;;;;;;5141921;27;20037;-66
2023/07/13 04:51:03;;;;;;;0.00;0.00;;;16.80;99.90;;;;;;5148743;27;20125;-66
2023/07/13 04:53:29;;;;;;;0.00;0.00;;;16.80;99.90;;;;;;5152059;27;20239;-66
2023/07/13 04:55:56;;;;;;;0.00;0.00;;;16.80;99.90;;;;;;5143548;27;20042;-66
2023/07/13 04:58:22;;;;;;;0.00;0.00;;;16.80;99.90;;;;;;5149373;27;20038;-66
2023/07/13 05:00:49;;;;;;;0.00;0.00;;;16.80;99.90;;;;;;5139277;27;20122;-67
2023/07/13 05:03:14;;;;;;;0.00;0.00;;;16.80;99.90;;;;;;5152707;27;20042;-66
2023/07/13 05:05:40;;;;;;;0.00;0.00;;;16.80;99.90;;;;;;5141158;27;20440;-66
2023/07/13 05:08:07;;;;;;;1.30;0.20;;;16.80;99.90;;;;;;5130254;27;20439;-66
2023/07/13 05:10:33;;;;;;;0.00;0.00;;;16.90;99.90;;;;;;5144555;27;20035;-66
2023/07/13 05:12:59;;;;;;;0.20;0.20;;;16.90;99.90;;;;;;5150474;27;20091;-66
2023/07/13 05:15:25;;;;;;;0.22;0.22;;;16.90;99.90;;;;;;5139136;27;20432;-66
2023/07/13 05:17:51;;;;;;;0.00;0.00;;;17.00;99.90;;;;;;5150179;27;20049;-66
2023/07/13 05:20:18;;;;;;;0.00;0.00;;;17.00;99.90;;;;;;5148789;27;20043;-66
2023/07/13 05:22:44;;;;;;;0.00;0.00;;;17.00;99.90;;;;;;5136565;27;20031;-66
2023/07/13 05:25:10;;;;;;;0.00;0.00;;;17.00;99.90;;;;;;5147538;27;20042;-66
2023/07/13 05:27:36;;;;;;;0.98;0.32;;;17.10;99.90;;;;;;5150797;27;20601;-66
2023/07/13 05:30:03;;;;;;;0.10;0.10;;;17.10;99.90;;;;;;5140646;27;20394;-66
2023/07/13 05:32:29;;;;;;;0.22;0.22;;;17.20;99.90;;;;;;5145567;27;20245;-66
2023/07/13 05:34:54;;;;;;;0.00;0.00;;;17.20;99.90;;;;;;5146372;27;20047;-66
2023/07/13 05:37:20;;;;;;;0.00;0.00;;;17.20;99.90;;;;;;5142006;27;20482;-66
2023/07/13 05:39:46;;;;;;;0.00;0.00;;;17.30;99.90;;;;;;5147171;27;20031;-66
2023/07/13 05:42:12;;;;;;;0.00;0.00;;;17.30;99.90;;;;;;5145380;27;20106;-66
2023/07/13 05:44:37;;;;;;;0.03;0.03;;;17.40;99.90;;;;;;5125257;27;20502;-67
2023/07/13 05:47:03;;;;;;;0.00;0.00;;;17.40;99.90;;;;;;5147660;27;20038;-66
2023/07/13 05:49:30;;;;;;;0.00;0.00;;;17.40;99.90;;;;;;5149458;27;20039;-66
2023/07/13 05:51:56;;;;;;;0.00;0.00;;;17.40;99.90;;;;;;5144769;27;20088;-67
2023/07/13 05:54:22;;;;;;;1.10;0.75;;;17.40;99.90;;;;;;5149905;27;20083;-66
2023/07/13 05:56:47;;;;;;;0.00;0.00;;;17.50;99.90;;;;;;5150283;27;20034;-66
2023/07/13 05:59:13;;;;;;;0.00;0.00;;;17.50;99.90;;;;;;5150774;27;20501;-66
2023/07/13 06:01:39;;;;;;;0.00;0.00;;;17.60;99.90;;;;;;5142195;27;20501;-66
2023/07/13 06:04:05;;;;;;;0.00;0.00;;;17.60;99.90;;;;;;5141422;27;20038;-66
2023/07/13 06:06:30;;;;;;;0.17;0.17;;;17.60;99.90;;;;;;5123875;27;20409;-66
2023/07/13 06:08:56;;;;;;;0.00;0.00;;;17.50;99.90;;;;;;5140020;27;20115;-67
2023/07/13 06:11:24;;;;;;;0.00;0.00;;;17.60;99.90;;;;;;5133514;27;20053;-66
2023/07/13 06:13:50;;;;;;;1.67;0.25;;;17.60;99.90;;;;;;5149830;27;20038;-67
2023/07/13 06:16:17;;;;;;;0.17;0.17;;;17.70;99.90;;;;;;5138732;27;20049;-66
2023/07/13 06:18:43;;;;;;;0.30;0.30;;;17.70;99.90;;;;;;5147270;27;20575;-67
2023/07/13 06:21:17;;;;;;;0.00;0.00;;;17.80;99.90;;;;;;5145148;27;20038;-67
2023/07/13 06:23:44;;;;;;;0.00;0.00;;;17.70;99.90;;;;;;5138535;27;20045;-66
2023/07/13 06:26:10;;;;;;;0.10;0.10;;;17.80;99.90;;;;;;5126486;27;20430;-67
2023/07/13 06:28:37;;;;;;;0.43;0.43;;;17.90;99.90;;;;;;5143161;27;20034;-67
2023/07/13 06:31:08;;;;;;;0.00;0.00;;;17.90;99.90;;;;;;5141969;27;20037;-67
2023/07/13 06:33:34;;;;;;;0.00;0.00;;;18.00;99.90;;;;;;5143709;27;20047;-67
2023/07/13 06:36:01;;;;;;;0.00;0.00;;;17.90;99.90;;;;;;5139686;27;21010;-67
2023/07/13 06:38:26;;;;;;;0.00;0.00;;;18.00;99.90;;;;;;5148674;27;20046;-67
2023/07/13 06:40:52;;;;;;;0.22;0.22;;;18.00;99.90;;;;;;5149167;27;20500;-67
2023/07/13 06:43:18;;;;;;;0.17;0.17;;;18.00;99.90;;;;;;5142946;27;20145;-67
2023/07/13 06:45:49;;;;;;;0.00;0.00;;;18.10;99.90;;;;;;5146325;27;20039;-67
2023/07/13 06:48:16;;;;;;;0.10;0.10;;;18.20;99.90;;;;;;5146123;27;20389;-67
2023/07/13 06:50:43;;;;;;;0.00;0.00;;;18.30;99.90;;;;;;5143955;27;20039;-67
2023/07/13 06:53:11;;;;;;;0.28;0.28;;;18.40;99.90;;;;;;5149534;27;20031;-67
2023/07/13 06:55:36;;;;;;;0.00;0.00;;;18.50;99.90;;;;;;5148770;27;20057;-67
2023/07/13 06:58:02;;;;;;;0.05;0.05;;;18.50;99.90;;;;;;5143841;27;20039;-67
2023/07/13 07:00:28;;;;;;;0.00;0.00;;;18.40;99.90;;;;;;5149372;27;20489;-67
2023/07/13 07:02:53;;;;;;;0.00;0.00;;;18.40;99.90;;;;;;5123659;27;20038;-67
2023/07/13 07:05:21;;;;;;;0.40;0.40;;;18.40;99.90;;;;;;5150422;27;20090;-67
2023/07/13 07:07:48;;;;;;;1.65;0.75;;;18.50;99.90;;;;;;5148273;27;20045;-67
2023/07/13 07:10:14;;;;;;;0.00;0.00;;;18.50;99.90;;;;;;5139125;27;20054;-67
2023/07/13 07:12:39;;;;;;;0.00;0.00;;;18.70;99.90;;;;;;5145425;27;20038;-67
2023/07/13 07:15:05;;;;;;;0.00;0.00;;;18.80;99.90;;;;;;5147131;27;20038;-67
2023/07/13 07:17:31;;;;;;;0.38;0.38;;;18.80;99.90;;;;;;5151123;27;20039;-67
2023/07/13 07:19:57;;;;;;;0.00;0.00;;;18.80;99.90;;;;;;5152163;27;20087;-67
2023/07/13 07:22:22;;;;;;;0.00;0.00;;;18.90;99.90;;;;;;5144480;27;20126;-67
2023/07/13 07:24:48;;;;;;;0.08;0.08;;;19.00;99.90;;;;;;5153138;27;20039;-68
2023/07/13 07:27:13;;;;;;;0.00;0.00;;;19.00;99.90;;;;;;5154765;27;20542;-67
2023/07/13 07:29:39;;;;;;;0.00;0.00;;;19.00;99.90;;;;;;5143971;27;20488;-67
2023/07/13 07:32:05;;;;;;;0.10;0.10;;;19.00;99.90;;;;;;5146461;27;20421;-68
2023/07/13 07:34:31;;;;;;;1.27;0.82;;;19.00;99.90;;;;;;5146348;27;20404;-67
2023/07/13 07:37:00;;;;;;;0.70;0.47;;;19.00;99.90;;;;;;5149805;27;20039;-67
2023/07/13 07:39:26;;;;;;;0.00;0.00;;;19.00;99.90;;;;;;5149205;27;20057;-68
2023/07/13 07:41:52;;;;;;;0.00;0.00;;;19.00;99.90;;;;;;5144873;27;20117;-68
2023/07/13 07:44:18;;;;;;;0.00;0.00;;;19.00;99.90;;;;;;5148692;27;20126;-68
2023/07/13 07:46:44;;;;;;;0.13;0.13;;;19.10;99.90;;;;;;5150907;27;20070;-68
2023/07/13 07:49:10;;;;;;;0.00;0.00;;;19.10;99.90;;;;;;5153787;27;20045;-68
2023/07/13 07:51:36;;;;;;;0.00;0.00;;;19.10;99.90;;;;;;5125066;27;20047;-68
2023/07/13 07:54:03;;;;;;;0.32;0.32;;;19.20;99.90;;;;;;5147190;27;20058;-68
2023/07/13 07:56:29;;;;;;;0.00;0.00;;;19.20;99.90;;;;;;5147329;27;20875;-68
2023/07/13 07:58:55;;;;;;;0.00;0.00;;;19.30;99.90;;;;;;5154547;27;20066;-68
2023/07/13 08:01:21;;;;;;;1.27;1.17;;;19.30;99.90;;;;;;5146032;27;20046;-67
2023/07/13 08:03:47;;;;;;;0.00;0.00;;;19.30;99.90;;;;;;5142104;27;20039;-68
2023/07/13 08:06:13;;;;;;;0.10;0.10;;;19.40;99.90;;;;;;5141719;27;20054;-68
2023/07/13 08:08:38;;;;;;;0.08;0.08;;;19.60;99.90;;;;;;5146960;27;20035;-69
2023/07/13 08:11:07;;;;;;;0.10;0.10;;;19.70;99.90;;;;;;5144673;27;20039;-69
2023/07/13 08:13:33;;;;;;;0.90;0.57;;;19.70;99.90;;;;;;5134920;27;20039;-69
2023/07/13 08:15:59;;;;;;;0.00;0.00;;;19.80;99.90;;;;;;5151550;27;20389;-69
2023/07/13 08:18:25;;;;;;;0.03;0.03;;;19.90;99.90;;;;;;5147773;27;20481;-69
2023/07/13 08:20:51;;;;;;;0.00;0.00;;;19.90;99.90;;;;;;5146371;27;20038;-69
2023/07/13 08:23:17;;;;;;;0.38;0.38;;;19.80;99.90;;;;;;5149231;27;20047;-69
2023/07/13 08:25:49;;;;;;;0.17;0.17;;;19.70;99.90;;;;;;5148067;27;20077;-69
2023/07/13 08:28:15;;;;;;;0.00;0.00;;;19.60;99.90;;;;;;5145477;27;20066;-69
2023/07/13 08:30:41;;;;;;;0.20;0.20;;;19.50;99.90;;;;;;5141194;27;20131;-69
2023/07/13 08:33:06;;;;;;;0.00;0.00;;;19.60;99.90;;;;;;5117976;27;20058;-69
2023/07/13 08:35:32;;;;;;;0.00;0.00;;;19.70;99.90;;;;;;5123117;27;20478;-69
2023/07/13 08:38:00;;;;;;;0.03;0.03;;;19.80;99.90;;;;;;5117654;27;20051;-68
2023/07/13 08:40:27;;;;;;;0.00;0.00;;;19.90;99.90;;;;;;5119406;27;20073;-69
2023/07/13 08:43:01;;;;;;;1.55;0.22;;;19.90;99.90;;;;;;5127335;27;20047;-69
2023/07/13 08:45:43;;;;;;;0.40;0.40;;;19.90;99.90;;;;;;5128310;27;20039;-69
2023/07/13 08:48:17;;;;;;;0.00;0.00;;;20.00;99.90;;;;;;5124102;27;20047;-68
2023/07/13 08:50:49;;;;;;;0.00;0.00;;;20.10;99.90;;;;;;5129349;27;20100;-69
2023/07/13 08:53:16;;;;;;;0.13;0.13;;;20.20;99.90;;;;;;5131921;27;20061;-69
2023/07/13 08:55:42;;;;;;;0.15;0.15;;;20.20;99.90;;;;;;5122399;27;20040;-69
2023/07/13 08:58:14;;;;;;;0.00;0.00;;;20.30;99.90;;;;;;5119999;27;20035;-68
2023/07/13 09:01:04;;;;;;;0.00;0.00;;;20.30;99.90;;;;;;5130118;27;20046;-69
2023/07/13 09:03:43;;;;;;;0.28;0.28;;;20.40;99.90;;;;;;5115842;27;20043;-69
2023/07/13 09:06:11;;;;;;;0.00;0.00;;;20.50;99.90;;;;;;5124816;27;20043;-69
2023/07/13 09:09:04;;;;;;;0.13;0.10;;;20.60;99.90;;;;;;5124190;27;20042;-69
2023/07/13 09:11:49;;;;;;;0.10;0.10;;;20.60;99.90;;;;;;5124762;27;20411;-67
2023/07/13 09:14:35;;;;;;;0.00;0.00;;;20.50;99.90;;;;;;5128115;27;20184;-68
2023/07/13 09:17:11;;;;;;;0.00;0.00;;;20.50;99.90;;;;;;5116166;27;20047;-68
2023/07/13 09:19:37;;;;;;;0.00;0.00;;;20.60;99.90;;;;;;5122624;27;20036;-67
2023/07/13 09:22:09;;;;;;;0.00;0.00;;;20.60;99.90;;;;;;5128979;27;20478;-69
2023/07/13 09:24:50;;;;;;;0.17;0.17;;;20.50;99.90;;;;;;5120063;27;20036;-68
2023/07/13 09:27:22;;;;;;;0.00;0.00;;;20.30;99.90;;;;;;5121721;27;20079;-68
2023/07/13 09:30:22;;;;;;;0.00;0.00;;;20.30;99.90;;;;;;5127186;27;20165;-68
2023/07/13 09:32:51;;;;;;;0.00;0.00;;;20.50;99.90;;;;;;5128517;27;20053;-68
2023/07/13 09:35:22;;;;;;;0.00;0.00;;;20.50;99.90;;;;;;5125139;27;20054;-68
2023/07/13 09:37:49;;;;;;;0.00;0.00;;;20.50;99.90;;;;;;5137341;27;20054;-68
2023/07/13 09:40:42;;;;;;;0.00;0.00;;;20.60;99.90;;;;;;5127748;27;20042;-67
2023/07/13 09:43:14;;;;;;;0.00;0.00;;;20.60;99.90;;;;;;5136533;27;20051;-67
2023/07/13 09:45:39;;;;;;;0.00;0.00;;;20.70;99.90;;;;;;5150122;27;20133;-67
2023/07/13 09:48:11;;;;;;;0.08;0.08;;;20.70;99.90;;;;;;5142428;27;20435;-67
2023/07/13 09:50:36;;;;;;;0.00;0.00;;;20.70;99.90;;;;;;5139727;27;20038;-67
2023/07/13 09:53:03;;;;;;;0.20;0.20;;;21.10;99.90;;;;;;5146301;27;20462;-67
2023/07/13 09:55:30;;;;;;;0.00;0.00;;;21.30;99.90;;;;;;5149699;27;20401;-67
2023/07/13 09:57:56;;;;;;;0.00;0.00;;;21.50;99.90;;;;;;5122920;27;20501;-69
2023/07/13 10:00:28;;;;;;;0.00;0.00;;;21.80;99.90;;;;;;5126649;27;20130;-69
2023/07/13 10:03:15;;;;;;;0.10;0.10;;;22.20;99.90;;;;;;5128885;27;20050;-69
2023/07/13 10:05:43;;;;;;;0.00;0.00;;;22.40;99.90;;;;;;5146631;27;20038;-69
2023/07/13 10:08:30;;;;;;;0.00;0.00;;;22.20;99.90;;;;;;5143940;27;20637;-68
2023/07/13 10:11:11;;;;;;;0.00;0.00;;;22.50;99.90;;;;;;5148488;27;20439;-68
2023/07/13 10:13:42;;;;;;;0.20;0.20;;;22.00;99.90;;;;;;5151362;27;20355;-69
2023/07/13 10:16:09;;;;;;;0.00;0.00;;;21.90;99.90;;;;;;5142100;27;20050;-69
2023/07/13 10:18:50;;;;;;;0.38;0.38;;;22.00;99.90;;;;;;5139617;27;20395;-68
2023/07/13 10:21:22;;;;;;;0.00;0.00;;;22.20;99.90;;;;;;5146091;27;20047;-69
2023/07/13 10:23:54;;;;;;;0.30;0.30;;;22.00;99.90;;;;;;5137033;27;20716;-69
2023/07/13 10:26:30;;;;;;;0.10;0.10;;;22.00;99.90;;;;;;5146740;27;20084;-69
2023/07/13 10:28:59;;;;;;;0.00;0.00;;;22.10;99.90;;;;;;5135592;27;20035;-69
2023/07/13 10:31:25;;;;;;;0.75;0.75;;;22.20;99.90;;;;;;5121181;27;20509;-69
2023/07/13 10:33:50;;;;;;;2.17;1.17;;;22.00;99.90;;;;;;5143442;27;20126;-69
2023/07/13 10:36:31;;;;;;;0.00;0.00;;;21.90;99.90;;;;;;5143584;27;20509;-68
2023/07/13 10:39:00;;;;;;;0.00;0.00;;;21.90;99.90;;;;;;5145988;27;20038;-69
2023/07/13 10:41:29;;;;;;;0.00;0.00;;;21.60;99.90;;;;;;5141793;27;20058;-69
2023/07/13 10:43:57;;;;;;;0.00;0.00;;;21.40;99.90;;;;;;5128311;27;20031;-69
2023/07/13 10:46:27;;;;;;;2.65;1.17;;;21.30;99.90;;;;;;5151179;27;20504;-68
2023/07/13 10:48:58;;;;;;;0.00;0.00;;;21.00;99.90;;;;;;5147483;27;20042;-68
2023/07/13 10:51:25;;;;;;;0.10;0.10;;;21.30;99.90;;;;;;5143664;27;20057;-68
2023/07/13 10:54:23;;;;;;;0.47;0.47;;;21.50;99.90;;;;;;5149019;27;20038;-69
2023/07/13 10:57:12;;;;;;;0.10;0.10;;;21.70;99.90;;;;;;5146973;27;20047;-68
2023/07/13 10:59:38;;;;;;;0.63;0.30;;;21.90;99.90;;;;;;5140449;27;20042;-68
2023/07/13 11:02:06;;;;;;;0.00;0.00;;;22.00;99.90;;;;;;5153487;27;20034;-69
2023/07/13 11:04:44;;;;;;;0.00;0.00;;;22.40;99.90;;;;;;5148840;27;20081;-69
2023/07/13 11:07:22;;;;;;;0.00;0.00;;;22.60;99.90;;;;;;5151095;27;20478;-69
2023/07/13 11:09:59;;;;;;;0.00;0.00;;;22.80;99.90;;;;;;5139137;27;20050;-69
2023/07/13 11:12:27;;;;;;;1.45;0.32;;;23.00;99.90;;;;;;5150140;27;21302;-69
2023/07/13 11:14:56;;;;;;;0.00;0.00;;;22.90;99.90;;;;;;5151121;27;20042;-70
2023/07/13 11:17:27;;;;;;;1.85;0.98;;;22.90;99.90;;;;;;5153583;27;20489;-70
2023/07/13 11:19:53;;;;;;;0.32;0.17;;;23.20;99.90;;;;;;5125969;27;20405;-70
2023/07/13 11:22:25;;;;;;;0.00;0.00;;;23.10;99.90;;;;;;5152694;27;20041;-70
2023/07/13 11:24:58;;;;;;;0.00;0.00;;;23.00;99.90;;;;;;5139208;27;20045;-70
2023/07/13 11:27:44;;;;;;;0.10;0.10;;;23.00;99.90;;;;;;5151331;27;20042;-70
2023/07/13 11:30:22;;;;;;;0.00;0.00;;;23.30;99.90;;;;;;5141893;27;20043;-70
2023/07/13 11:33:12;;;;;;;0.05;0.05;;;23.50;99.90;;;;;;5154531;27;20528;-70
2023/07/13 11:35:44;;;;;;;0.00;0.00;;;23.60;99.90;;;;;;5120378;27;20055;-69
2023/07/13 11:38:28;;;;;;;0.00;0.00;;;23.70;99.90;;;;;;5151611;27;20053;-70
2023/07/13 11:40:55;;;;;;;0.05;0.05;;;23.80;99.90;;;;;;5152857;27;20102;-70
2023/07/13 11:43:25;;;;;;;2.08;1.13;;;24.00;99.90;;;;;;5154007;27;20504;-70
2023/07/13 11:45:51;;;;;;;0.00;0.00;;;23.90;99.90;;;;;;5143306;27;20080;-71
2023/07/13 11:48:37;;;;;;;1.08;0.20;;;24.30;99.90;;;;;;5152366;27;20078;-70
2023/07/13 11:51:05;;;;;;;0.00;0.00;;;23.90;99.90;;;;;;5151377;27;20125;-70
2023/07/13 11:53:45;;;;;;;0.00;0.00;;;24.20;99.90;;;;;;5146723;27;20039;-70
2023/07/13 11:56:11;;;;;;;0.10;0.10;;;24.00;99.90;;;;;;5149688;27;20132;-71
2023/07/13 11:58:37;;;;;;;0.00;0.00;;;24.00;99.90;;;;;;5147410;27;20051;-71
2023/07/13 12:01:06;;;;;;;0.00;0.00;;;24.00;99.90;;;;;;5126220;27;20043;-70
2023/07/13 12:03:34;;;;;;;0.00;0.00;;;23.70;99.90;;;;;;5150225;27;20039;-69
2023/07/13 12:06:07;;;;;;;0.47;0.47;;;23.80;99.90;;;;;;5152998;27;20050;-70
2023/07/13 12:08:42;;;;;;;;;;;23.90;99.90;;;;;;5149080;27;20121;-70
2023/07/13 12:11:16;;;;;;;0.00;0.00;;;24.10;99.90;;;;;;5141275;27;20686;-70
2023/07/13 12:13:44;;;;;;;0.00;0.00;;;24.20;99.90;;;;;;5148774;27;20035;-70
2023/07/13 12:16:34;;;;;;;0.00;0.00;;;24.20;99.90;;;;;;5132142;27;20138;-70
2023/07/13 12:19:02;;;;;;;0.00;0.00;;;24.60;99.90;;;;;;5149393;27;20529;-70
2023/07/13 12:21:34;;;;;;;0.38;0.38;;;24.60;99.90;;;;;;5142350;27;20054;-70
2023/07/13 12:24:02;;;;;;;0.00;0.00;;;24.70;99.90;;;;;;5153135;27;20031;-71
2023/07/13 12:26:30;;;;;;;0.00;0.00;;;24.50;99.90;;;;;;5150329;27;20043;-71
2023/07/13 12:28:58;;;;;;;0.00;0.00;;;24.80;99.90;;;;;;5143615;27;20363;-71
2023/07/13 12:31:33;;;;;;;6.82;1.27;;;24.80;99.90;;;;;;5129049;27;20091;-71
2023/07/13 12:34:13;;;;;;;0.00;0.00;;;24.00;99.90;;;;;;5141912;27;20046;-71
2023/07/13 12:37:02;;;;;;;0.05;0.05;;;23.40;99.90;;;;;;5150548;27;20122;-71
2023/07/13 12:39:47;;;;;;;0.00;0.00;;;23.30;99.90;;;;;;5131385;27;20085;-70
2023/07/13 12:42:25;;;;;;;0.10;0.10;;;23.40;99.90;;;;;;5146170;27;20091;-71
2023/07/13 12:45:12;;;;;;;0.38;0.38;;;23.80;99.90;;;;;;5123827;27;20065;-71
2023/07/13 12:47:43;;;;;;;0.20;0.20;;;24.00;99.90;;;;;;5149918;27;20074;-71
2023/07/13 12:50:16;;;;;;;0.63;0.30;;;23.50;99.90;;;;;;5146332;27;20043;-70
2023/07/13 12:52:43;;;;;;;0.00;0.00;;;24.00;99.90;;;;;;5145636;27;20554;-70
2023/07/13 12:55:18;;;;;;;0.00;0.00;;;24.30;99.90;;;;;;5139436;27;20067;-71
2023/07/13 12:57:58;;;;;;;1.08;0.38;;;23.70;99.90;;;;;;5147934;27;20097;-70